Nar'yan-Mar, Russia
Current Conditions -  °F | °C
As of 3:00 AM on Sunday 23 Nov 2014 (Local Time) from ULAA Reporting Station
Broken Clouds Broken Clouds  
Wind Chill:   Ceiling: 1000
Heat Index: 18°   Visibility: 6mi
Dew Point: 16°   Wind: 11mph
Humidity: 93%   Direction: 90°E
Pressure: 30.45"   Gusts: 18mph
Location:  67.63°N, 53.03°E
Report Text: ULAA 230000Z 09005G08MPS 060V130 9999 BKN010 M08/M09 Q1031 NOSIG RMK QFE773/1030 SC035
Loading
Personal Weather Stations






























Interactive Weather Map New forecast layout! Learn more

10-Day Weather Forecast

Advertisements
Track Severe Weather on mobile